sensor_id;sensor_type;location;lat;lon;timestamp;temperature;humidity
31263;DHT22;17892;52.080;9.006;2024-02-23T00:02:18;10.20;99.90
31263;DHT22;17892;52.080;9.006;2024-02-23T00:04:44;10.20;99.90
31263;DHT22;17892;52.080;9.006;2024-02-23T00:07:11;10.20;99.90
31263;DHT22;17892;52.080;9.006;2024-02-23T00:09:37;10.20;99.90
31263;DHT22;17892;52.080;9.006;2024-02-23T00:12:03;10.20;99.90
31263;DHT22;17892;52.080;9.006;2024-02-23T00:14:30;10.20;99.90
31263;DHT22;17892;52.080;9.006;2024-02-23T00:16:56;10.20;99.90
31263;DHT22;17892;52.080;9.006;2024-02-23T00:19:23;10.10;99.90
31263;DHT22;17892;52.080;9.006;2024-02-23T00:21:49;10.20;99.90
31263;DHT22;17892;52.080;9.006;2024-02-23T00:24:16;10.20;99.90
31263;DHT22;17892;52.080;9.006;2024-02-23T00:26:42;10.10;99.90
31263;DHT22;17892;52.080;9.006;2024-02-23T00:29:08;10.20;99.90
31263;DHT22;17892;52.080;9.006;2024-02-23T00:31:34;10.20;99.90
31263;DHT22;17892;52.080;9.006;2024-02-23T00:34:03;10.20;99.90
31263;DHT22;17892;52.080;9.006;2024-02-23T00:36:29;10.10;99.90
31263;DHT22;17892;52.080;9.006;2024-02-23T00:38:54;10.10;99.90
31263;DHT22;17892;52.080;9.006;2024-02-23T00:41:20;10.00;99.90
31263;DHT22;17892;52.080;9.006;2024-02-23T00:43:46;10.00;99.90
31263;DHT22;17892;52.080;9.006;2024-02-23T00:46:13;10.00;99.90
31263;DHT22;17892;52.080;9.006;2024-02-23T00:48:39;10.00;99.90
31263;DHT22;17892;52.080;9.006;2024-02-23T00:51:05;9.90;99.90
31263;DHT22;17892;52.080;9.006;2024-02-23T00:53:32;9.90;99.90
31263;DHT22;17892;52.080;9.006;2024-02-23T00:55:58;9.80;99.90
31263;DHT22;17892;52.080;9.006;2024-02-23T00:58:24;9.80;99.90
31263;DHT22;17892;52.080;9.006;2024-02-23T01:00:50;9.70;99.90
31263;DHT22;17892;52.080;9.006;2024-02-23T01:03:15;9.60;99.90
31263;DHT22;17892;52.080;9.006;2024-02-23T01:05:41;9.60;99.90
31263;DHT22;17892;52.080;9.006;2024-02-23T01:08:08;9.50;99.90
31263;DHT22;17892;52.080;9.006;2024-02-23T01:10:35;9.40;99.90
31263;DHT22;17892;52.080;9.006;2024-02-23T01:13:00;9.30;99.90
31263;DHT22;17892;52.080;9.006;2024-02-23T01:15:26;9.20;99.90
31263;DHT22;17892;52.080;9.006;2024-02-23T01:17:51;9.10;99.90
31263;DHT22;17892;52.080;9.006;2024-02-23T01:20:17;9.00;99.90
31263;DHT22;17892;52.080;9.006;2024-02-23T01:22:43;8.90;99.90
31263;DHT22;17892;52.080;9.006;2024-02-23T01:25:09;8.80;99.90
31263;DHT22;17892;52.080;9.006;2024-02-23T01:27:34;8.60;99.90
31263;DHT22;17892;52.080;9.006;2024-02-23T01:30:00;8.40;99.90
31263;DHT22;17892;52.080;9.006;2024-02-23T01:32:26;8.40;99.90
31263;DHT22;17892;52.080;9.006;2024-02-23T01:34:51;8.20;99.90
31263;DHT22;17892;52.080;9.006;2024-02-23T01:37:17;8.10;99.90
31263;DHT22;17892;52.080;9.006;2024-02-23T01:39:43;8.10;99.90
31263;DHT22;17892;52.080;9.006;2024-02-23T01:42:09;7.90;99.90
31263;DHT22;17892;52.080;9.006;2024-02-23T01:44:34;7.80;99.90
31263;DHT22;17892;52.080;9.006;2024-02-23T01:47:00;7.70;99.90
31263;DHT22;17892;52.080;9.006;2024-02-23T01:49:26;7.50;99.90
31263;DHT22;17892;52.080;9.006;2024-02-23T01:51:57;7.40;99.90
31263;DHT22;17892;52.080;9.006;2024-02-23T01:54:23;7.30;99.90
31263;DHT22;17892;52.080;9.006;2024-02-23T01:56:50;7.30;99.90
31263;DHT22;17892;52.080;9.006;2024-02-23T01:59:16;7.20;99.90
31263;DHT22;17892;52.080;9.006;2024-02-23T02:01:43;7.10;99.90
31263;DHT22;17892;52.080;9.006;2024-02-23T02:04:09;7.10;99.90
31263;DHT22;17892;52.080;9.006;2024-02-23T02:06:35;7.10;99.90
31263;DHT22;17892;52.080;9.006;2024-02-23T02:09:01;7.00;99.90
31263;DHT22;17892;52.080;9.006;2024-02-23T02:15:08;7.00;99.90
31263;DHT22;17892;52.080;9.006;2024-02-23T02:17:34;7.00;99.90
31263;DHT22;17892;52.080;9.006;2024-02-23T02:20:02;7.00;99.90
31263;DHT22;17892;52.080;9.006;2024-02-23T02:22:34;7.00;99.90
31263;DHT22;17892;52.080;9.006;2024-02-23T02:25:00;7.10;99.90
31263;DHT22;17892;52.080;9.006;2024-02-23T02:27:26;7.10;99.90
31263;DHT22;17892;52.080;9.006;2024-02-23T02:29:52;7.10;99.90
31263;DHT22;17892;52.080;9.006;2024-02-23T02:32:17;7.10;99.90
31263;DHT22;17892;52.080;9.006;2024-02-23T02:34:43;7.10;99.90
31263;DHT22;17892;52.080;9.006;2024-02-23T02:37:09;7.10;99.90
31263;DHT22;17892;52.080;9.006;2024-02-23T02:39:36;7.10;99.90
31263;DHT22;17892;52.080;9.006;2024-02-23T02:42:01;7.20;99.90
31263;DHT22;17892;52.080;9.006;2024-02-23T02:44:27;7.30;99.90
31263;DHT22;17892;52.080;9.006;2024-02-23T02:46:56;7.20;99.90
31263;DHT22;17892;52.080;9.006;2024-02-23T02:49:22;7.20;99.90
31263;DHT22;17892;52.080;9.006;2024-02-23T02:51:48;7.30;99.90
31263;DHT22;17892;52.080;9.006;2024-02-23T02:54:13;7.30;99.90
31263;DHT22;17892;52.080;9.006;2024-02-23T02:56:47;7.30;99.90
31263;DHT22;17892;52.080;9.006;2024-02-23T02:59:13;7.30;99.90
31263;DHT22;17892;52.080;9.006;2024-02-23T03:01:39;7.30;99.90
31263;DHT22;17892;52.080;9.006;2024-02-23T03:04:05;7.30;99.90
31263;DHT22;17892;52.080;9.006;2024-02-23T03:06:30;7.30;99.90
31263;DHT22;17892;52.080;9.006;2024-02-23T03:08:56;7.30;99.90
31263;DHT22;17892;52.080;9.006;2024-02-23T03:11:22;7.30;99.90
31263;DHT22;17892;52.080;9.006;2024-02-23T03:13:47;7.30;99.90
31263;DHT22;17892;52.080;9.006;2024-02-23T03:16:17;7.40;99.90
31263;DHT22;17892;52.080;9.006;2024-02-23T03:18:43;7.40;99.90
31263;DHT22;17892;52.080;9.006;2024-02-23T03:21:09;7.40;99.90
31263;DHT22;17892;52.080;9.006;2024-02-23T03:23:36;7.40;99.90
31263;DHT22;17892;52.080;9.006;2024-02-23T03:26:02;7.40;99.90
31263;DHT22;17892;52.080;9.006;2024-02-23T03:28:28;7.40;99.90
31263;DHT22;17892;52.080;9.006;2024-02-23T03:30:54;7.40;99.90
31263;DHT22;17892;52.080;9.006;2024-02-23T03:33:19;7.40;99.90
31263;DHT22;17892;52.080;9.006;2024-02-23T03:35:45;7.50;99.90
31263;DHT22;17892;52.080;9.006;2024-02-23T03:38:10;7.40;99.90
31263;DHT22;17892;52.080;9.006;2024-02-23T03:40:36;7.40;99.90
31263;DHT22;17892;52.080;9.006;2024-02-23T03:43:03;7.50;99.90
31263;DHT22;17892;52.080;9.006;2024-02-23T03:45:29;7.50;99.90
31263;DHT22;17892;52.080;9.006;2024-02-23T03:47:54;7.50;99.90
31263;DHT22;17892;52.080;9.006;2024-02-23T03:50:20;7.50;99.90
31263;DHT22;17892;52.080;9.006;2024-02-23T03:52:46;7.50;99.90
31263;DHT22;17892;52.080;9.006;2024-02-23T03:55:11;7.40;99.90
31263;DHT22;17892;52.080;9.006;2024-02-23T03:57:37;7.50;99.90
31263;DHT22;17892;52.080;9.006;2024-02-23T04:00:03;7.50;99.90
31263;DHT22;17892;52.080;9.006;2024-02-23T04:02:31;7.50;99.90
31263;DHT22;17892;52.080;9.006;2024-02-23T04:04:57;7.50;99.90
31263;DHT22;17892;52.080;9.006;2024-02-23T04:07:22;7.50;99.90
31263;DHT22;17892;52.080;9.006;2024-02-23T04:09:48;7.60;99.90
31263;DHT22;17892;52.080;9.006;2024-02-23T04:12:18;7.60;99.90
31263;DHT22;17892;52.080;9.006;2024-02-23T04:14:45;7.60;99.90
31263;DHT22;17892;52.080;9.006;2024-02-23T04:17:11;7.60;99.90
31263;DHT22;17892;52.080;9.006;2024-02-23T04:19:37;7.60;99.90
31263;DHT22;17892;52.080;9.006;2024-02-23T04:22:03;7.60;99.90
31263;DHT22;17892;52.080;9.006;2024-02-23T04:24:31;7.60;99.90
31263;DHT22;17892;52.080;9.006;2024-02-23T04:26:56;7.60;99.90
31263;DHT22;17892;52.080;9.006;2024-02-23T04:29:22;7.50;99.90
31263;DHT22;17892;52.080;9.006;2024-02-23T04:31:48;7.60;99.90
31263;DHT22;17892;52.080;9.006;2024-02-23T04:34:15;7.50;99.90
31263;DHT22;17892;52.080;9.006;2024-02-23T04:36:41;7.50;99.90
31263;DHT22;17892;52.080;9.006;2024-02-23T04:39:07;7.60;99.90
31263;DHT22;17892;52.080;9.006;2024-02-23T04:41:33;7.60;99.90
31263;DHT22;17892;52.080;9.006;2024-02-23T04:43:59;7.60;99.90
31263;DHT22;17892;52.080;9.006;2024-02-23T04:46:26;7.60;99.90
31263;DHT22;17892;52.080;9.006;2024-02-23T04:48:52;7.50;99.90
31263;DHT22;17892;52.080;9.006;2024-02-23T04:51:18;7.50;99.90
31263;DHT22;17892;52.080;9.006;2024-02-23T04:53:44;7.50;99.90
31263;DHT22;17892;52.080;9.006;2024-02-23T04:56:10;7.50;99.90
31263;DHT22;17892;52.080;9.006;2024-02-23T04:58:36;7.50;99.90
31263;DHT22;17892;52.080;9.006;2024-02-23T05:01:03;7.50;99.90
31263;DHT22;17892;52.080;9.006;2024-02-23T05:03:29;7.40;99.90
31263;DHT22;17892;52.080;9.006;2024-02-23T05:05:54;7.40;99.90
31263;DHT22;17892;52.080;9.006;2024-02-23T05:08:21;7.40;99.90
31263;DHT22;17892;52.080;9.006;2024-02-23T05:10:49;7.40;99.90
31263;DHT22;17892;52.080;9.006;2024-02-23T05:13:16;7.40;99.90
31263;DHT22;17892;52.080;9.006;2024-02-23T05:15:42;7.40;99.90
31263;DHT22;17892;52.080;9.006;2024-02-23T05:18:07;7.40;99.90
31263;DHT22;17892;52.080;9.006;2024-02-23T05:20:33;7.40;99.90
31263;DHT22;17892;52.080;9.006;2024-02-23T05:22:59;7.50;99.90
31263;DHT22;17892;52.080;9.006;2024-02-23T05:25:24;7.50;99.90
31263;DHT22;17892;52.080;9.006;2024-02-23T05:27:53;7.50;99.90
31263;DHT22;17892;52.080;9.006;2024-02-23T05:30:19;7.50;99.90
31263;DHT22;17892;52.080;9.006;2024-02-23T05:32:44;7.50;99.90
31263;DHT22;17892;52.080;9.006;2024-02-23T05:35:11;7.50;99.90
31263;DHT22;17892;52.080;9.006;2024-02-23T05:37:37;7.50;99.90
31263;DHT22;17892;52.080;9.006;2024-02-23T05:40:03;7.50;99.90
31263;DHT22;17892;52.080;9.006;2024-02-23T05:42:32;7.50;99.90
31263;DHT22;17892;52.080;9.006;2024-02-23T05:44:59;7.50;99.90
31263;DHT22;17892;52.080;9.006;2024-02-23T05:47:24;7.50;99.90
31263;DHT22;17892;52.080;9.006;2024-02-23T05:49:50;7.50;99.90
31263;DHT22;17892;52.080;9.006;2024-02-23T05:52:16;7.50;99.90
31263;DHT22;17892;52.080;9.006;2024-02-23T05:54:42;7.50;99.90
31263;DHT22;17892;52.080;9.006;2024-02-23T05:57:07;7.50;99.90
31263;DHT22;17892;52.080;9.006;2024-02-23T05:59:33;7.60;99.90
31263;DHT22;17892;52.080;9.006;2024-02-23T06:01:59;7.60;99.90
31263;DHT22;17892;52.080;9.006;2024-02-23T06:04:25;7.60;99.90
31263;DHT22;17892;52.080;9.006;2024-02-23T06:06:51;7.60;99.90
31263;DHT22;17892;52.080;9.006;2024-02-23T06:09:16;7.50;99.90
31263;DHT22;17892;52.080;9.006;2024-02-23T06:11:42;7.50;99.90
31263;DHT22;17892;52.080;9.006;2024-02-23T06:14:08;7.50;99.90
31263;DHT22;17892;52.080;9.006;2024-02-23T06:16:34;7.50;99.90
31263;DHT22;17892;52.080;9.006;2024-02-23T06:18:59;7.60;99.90
31263;DHT22;17892;52.080;9.006;2024-02-23T06:21:26;7.50;99.90
31263;DHT22;17892;52.080;9.006;2024-02-23T06:23:52;7.50;99.90
31263;DHT22;17892;52.080;9.006;2024-02-23T06:26:18;7.60;99.90
31263;DHT22;17892;52.080;9.006;2024-02-23T06:28:43;7.50;99.90
31263;DHT22;17892;52.080;9.006;2024-02-23T06:31:09;7.50;99.90
31263;DHT22;17892;52.080;9.006;2024-02-23T06:33:35;7.50;99.90
31263;DHT22;17892;52.080;9.006;2024-02-23T06:36:01;7.50;99.90
31263;DHT22;17892;52.080;9.006;2024-02-23T06:38:28;7.50;99.90
31263;DHT22;17892;52.080;9.006;2024-02-23T06:40:54;7.50;99.90
31263;DHT22;17892;52.080;9.006;2024-02-23T06:43:21;7.50;99.90
31263;DHT22;17892;52.080;9.006;2024-02-23T06:45:47;7.50;99.90
31263;DHT22;17892;52.080;9.006;2024-02-23T06:48:12;7.50;99.90
31263;DHT22;17892;52.080;9.006;2024-02-23T06:50:38;7.50;99.90
31263;DHT22;17892;52.080;9.006;2024-02-23T06:53:04;7.50;99.90
31263;DHT22;17892;52.080;9.006;2024-02-23T06:55:32;7.50;99.90
31263;DHT22;17892;52.080;9.006;2024-02-23T06:57:59;7.60;99.90
31263;DHT22;17892;52.080;9.006;2024-02-23T07:00:25;7.50;99.90
31263;DHT22;17892;52.080;9.006;2024-02-23T07:02:50;7.50;99.90
31263;DHT22;17892;52.080;9.006;2024-02-23T07:05:16;7.60;99.90
31263;DHT22;17892;52.080;9.006;2024-02-23T07:07:42;7.60;99.90
31263;DHT22;17892;52.080;9.006;2024-02-23T07:10:08;7.60;99.90
31263;DHT22;17892;52.080;9.006;2024-02-23T07:12:34;7.60;99.90
31263;DHT22;17892;52.080;9.006;2024-02-23T07:15:00;7.60;99.90
31263;DHT22;17892;52.080;9.006;2024-02-23T07:17:27;7.60;99.90
31263;DHT22;17892;52.080;9.006;2024-02-23T07:19:53;7.60;99.90
31263;DHT22;17892;52.080;9.006;2024-02-23T07:22:19;7.60;99.90
31263;DHT22;17892;52.080;9.006;2024-02-23T07:24:45;7.70;99.90
31263;DHT22;17892;52.080;9.006;2024-02-23T07:27:11;7.70;99.90
31263;DHT22;17892;52.080;9.006;2024-02-23T07:29:37;7.70;99.90
31263;DHT22;17892;52.080;9.006;2024-02-23T07:32:03;7.80;99.90
31263;DHT22;17892;52.080;9.006;2024-02-23T07:34:30;7.90;99.90
31263;DHT22;17892;52.080;9.006;2024-02-23T07:36:56;7.90;99.90
31263;DHT22;17892;52.080;9.006;2024-02-23T07:39:22;7.90;99.90
31263;DHT22;17892;52.080;9.006;2024-02-23T07:41:48;7.90;99.90
31263;DHT22;17892;52.080;9.006;2024-02-23T07:44:14;7.90;99.90
31263;DHT22;17892;52.080;9.006;2024-02-23T07:46:39;7.80;99.90
31263;DHT22;17892;52.080;9.006;2024-02-23T07:49:05;7.80;99.90
31263;DHT22;17892;52.080;9.006;2024-02-23T07:51:31;7.70;99.90
31263;DHT22;17892;52.080;9.006;2024-02-23T07:53:57;7.70;99.90
31263;DHT22;17892;52.080;9.006;2024-02-23T07:56:23;7.70;99.90
31263;DHT22;17892;52.080;9.006;2024-02-23T07:58:49;7.70;99.90
31263;DHT22;17892;52.080;9.006;2024-02-23T08:01:14;7.70;99.90
31263;DHT22;17892;52.080;9.006;2024-02-23T08:03:40;7.80;99.90
31263;DHT22;17892;52.080;9.006;2024-02-23T08:06:06;7.80;99.90
31263;DHT22;17892;52.080;9.006;2024-02-23T08:08:32;8.00;99.90
31263;DHT22;17892;52.080;9.006;2024-02-23T08:11:03;7.80;99.90
31263;DHT22;17892;52.080;9.006;2024-02-23T08:13:29;8.10;99.90
31263;DHT22;17892;52.080;9.006;2024-02-23T08:15:56;8.30;99.90
31263;DHT22;17892;52.080;9.006;2024-02-23T08:18:22;8.40;99.90
31263;DHT22;17892;52.080;9.006;2024-02-23T08:20:48;8.40;99.90
31263;DHT22;17892;52.080;9.006;2024-02-23T08:23:14;8.50;99.90
31263;DHT22;17892;52.080;9.006;2024-02-23T08:25:40;8.50;99.90
31263;DHT22;17892;52.080;9.006;2024-02-23T08:28:06;8.60;99.90
31263;DHT22;17892;52.080;9.006;2024-02-23T08:30:32;8.70;99.90
31263;DHT22;17892;52.080;9.006;2024-02-23T08:32:58;8.70;99.90
31263;DHT22;17892;52.080;9.006;2024-02-23T08:35:24;8.80;99.90
31263;DHT22;17892;52.080;9.006;2024-02-23T08:37:49;9.00;99.90
31263;DHT22;17892;52.080;9.006;2024-02-23T08:40:15;9.30;99.90
31263;DHT22;17892;52.080;9.006;2024-02-23T08:42:41;9.50;99.90
31263;DHT22;17892;52.080;9.006;2024-02-23T08:45:07;9.80;99.90
31263;DHT22;17892;52.080;9.006;2024-02-23T08:47:35;10.00;99.90
31263;DHT22;17892;52.080;9.006;2024-02-23T08:50:01;10.30;99.90
31263;DHT22;17892;52.080;9.006;2024-02-23T08:52:28;10.50;99.90
31263;DHT22;17892;52.080;9.006;2024-02-23T08:54:53;10.80;99.90
31263;DHT22;17892;52.080;9.006;2024-02-23T08:57:19;10.90;99.90
31263;DHT22;17892;52.080;9.006;2024-02-23T08:59:45;11.00;99.90
31263;DHT22;17892;52.080;9.006;2024-02-23T09:02:12;11.00;99.90
31263;DHT22;17892;52.080;9.006;2024-02-23T09:04:38;10.90;99.90
31263;DHT22;17892;52.080;9.006;2024-02-23T09:07:03;11.00;99.90
31263;DHT22;17892;52.080;9.006;2024-02-23T09:09:29;10.90;99.90
31263;DHT22;17892;52.080;9.006;2024-02-23T09:11:55;10.90;99.90
31263;DHT22;17892;52.080;9.006;2024-02-23T09:14:21;11.00;99.90
31263;DHT22;17892;52.080;9.006;2024-02-23T09:16:46;11.10;99.90
31263;DHT22;17892;52.080;9.006;2024-02-23T09:19:16;11.10;99.90
31263;DHT22;17892;52.080;9.006;2024-02-23T09:21:42;11.00;99.90
31263;DHT22;17892;52.080;9.006;2024-02-23T09:24:07;11.00;99.90
31263;DHT22;17892;52.080;9.006;2024-02-23T09:26:33;10.90;99.90
31263;DHT22;17892;52.080;9.006;2024-02-23T09:28:59;10.80;99.90
31263;DHT22;17892;52.080;9.006;2024-02-23T09:31:24;10.70;99.90
31263;DHT22;17892;52.080;9.006;2024-02-23T09:33:51;10.70;99.90
31263;DHT22;17892;52.080;9.006;2024-02-23T09:36:17;10.50;99.90
31263;DHT22;17892;52.080;9.006;2024-02-23T09:38:43;10.40;99.90
31263;DHT22;17892;52.080;9.006;2024-02-23T09:41:18;10.30;99.90
31263;DHT22;17892;52.080;9.006;2024-02-23T09:43:46;10.30;99.90
31263;DHT22;17892;52.080;9.006;2024-02-23T09:46:13;10.20;99.90
31263;DHT22;17892;52.080;9.006;2024-02-23T09:48:40;10.20;99.90
31263;DHT22;17892;52.080;9.006;2024-02-23T09:51:10;10.10;99.90
31263;DHT22;17892;52.080;9.006;2024-02-23T09:53:37;10.00;99.90
31263;DHT22;17892;52.080;9.006;2024-02-23T09:56:04;10.00;99.90
31263;DHT22;17892;52.080;9.006;2024-02-23T09:58:35;9.90;99.90
31263;DHT22;17892;52.080;9.006;2024-02-23T10:01:03;9.80;99.90
31263;DHT22;17892;52.080;9.006;2024-02-23T10:03:30;9.80;99.90
31263;DHT22;17892;52.080;9.006;2024-02-23T10:05:59;9.80;99.90
31263;DHT22;17892;52.080;9.006;2024-02-23T10:08:27;9.70;99.90
31263;DHT22;17892;52.080;9.006;2024-02-23T10:10:54;9.80;99.90
31263;DHT22;17892;52.080;9.006;2024-02-23T10:13:21;9.80;99.90
31263;DHT22;17892;52.080;9.006;2024-02-23T10:15:52;9.80;99.90
31263;DHT22;17892;52.080;9.006;2024-02-23T10:18:18;9.80;99.90
31263;DHT22;17892;52.080;9.006;2024-02-23T10:20:45;9.90;99.90
31263;DHT22;17892;52.080;9.006;2024-02-23T10:23:11;9.90;99.90
31263;DHT22;17892;52.080;9.006;2024-02-23T10:25:37;9.90;99.90
31263;DHT22;17892;52.080;9.006;2024-02-23T10:28:06;10.00;99.90
31263;DHT22;17892;52.080;9.006;2024-02-23T10:30:32;10.00;99.90
31263;DHT22;17892;52.080;9.006;2024-02-23T10:32:59;10.10;99.90
31263;DHT22;17892;52.080;9.006;2024-02-23T10:35:25;10.00;99.90
31263;DHT22;17892;52.080;9.006;2024-02-23T10:37:53;10.00;99.90
31263;DHT22;17892;52.080;9.006;2024-02-23T10:40:20;10.10;99.90
31263;DHT22;17892;52.080;9.006;2024-02-23T10:42:48;10.00;99.90
31263;DHT22;17892;52.080;9.006;2024-02-23T10:45:19;10.00;99.90
31263;DHT22;17892;52.080;9.006;2024-02-23T10:47:48;10.00;99.90
31263;DHT22;17892;52.080;9.006;2024-02-23T10:50:14;10.00;99.90
31263;DHT22;17892;52.080;9.006;2024-02-23T10:52:42;10.00;99.90
31263;DHT22;17892;52.080;9.006;2024-02-23T10:55:11;10.00;99.90
31263;DHT22;17892;52.080;9.006;2024-02-23T10:57:37;10.00;99.90
31263;DHT22;17892;52.080;9.006;2024-02-23T11:00:05;10.00;99.90
31263;DHT22;17892;52.080;9.006;2024-02-23T11:02:41;10.00;99.90
31263;DHT22;17892;52.080;9.006;2024-02-23T11:05:10;10.00;99.90
31263;DHT22;17892;52.080;9.006;2024-02-23T11:07:40;10.00;99.90
31263;DHT22;17892;52.080;9.006;2024-02-23T11:10:06;10.00;99.90
31263;DHT22;17892;52.080;9.006;2024-02-23T11:12:34;10.10;99.90
31263;DHT22;17892;52.080;9.006;2024-02-23T11:15:01;10.10;99.90
31263;DHT22;17892;52.080;9.006;2024-02-23T11:17:28;10.20;99.90
31263;DHT22;17892;52.080;9.006;2024-02-23T11:19:55;10.20;99.90
31263;DHT22;17892;52.080;9.006;2024-02-23T11:22:26;10.30;99.90
31263;DHT22;17892;52.080;9.006;2024-02-23T11:24:52;10.30;99.90
31263;DHT22;17892;52.080;9.006;2024-02-23T11:27:19;10.40;99.90
31263;DHT22;17892;52.080;9.006;2024-02-23T11:29:46;10.50;99.90
31263;DHT22;17892;52.080;9.006;2024-02-23T11:32:15;10.50;99.90
31263;DHT22;17892;52.080;9.006;2024-02-23T11:34:41;10.70;99.90
31263;DHT22;17892;52.080;9.006;2024-02-23T11:37:10;10.90;99.90
31263;DHT22;17892;52.080;9.006;2024-02-23T11:39:39;10.90;99.90
31263;DHT22;17892;52.080;9.006;2024-02-23T11:42:06;10.90;99.90
31263;DHT22;17892;52.080;9.006;2024-02-23T11:44:32;10.90;99.90
31263;DHT22;17892;52.080;9.006;2024-02-23T11:46:58;10.90;99.90
31263;DHT22;17892;52.080;9.006;2024-02-23T11:49:30;11.00;99.90
31263;DHT22;17892;52.080;9.006;2024-02-23T11:51:57;11.10;99.90
31263;DHT22;17892;52.080;9.006;2024-02-23T11:54:22;11.10;99.90
31263;DHT22;17892;52.080;9.006;2024-02-23T11:56:49;11.20;99.90
31263;DHT22;17892;52.080;9.006;2024-02-23T11:59:15;11.20;99.90
31263;DHT22;17892;52.080;9.006;2024-02-23T12:01:41;11.20;99.90
31263;DHT22;17892;52.080;9.006;2024-02-23T12:04:07;11.30;99.90
31263;DHT22;17892;52.080;9.006;2024-02-23T12:06:33;11.30;99.90
31263;DHT22;17892;52.080;9.006;2024-02-23T12:09:00;11.40;99.90
31263;DHT22;17892;52.080;9.006;2024-02-23T12:11:26;11.40;99.90
31263;DHT22;17892;52.080;9.006;2024-02-23T12:13:53;11.50;99.90
31263;DHT22;17892;52.080;9.006;2024-02-23T12:16:20;11.60;99.90
31263;DHT22;17892;52.080;9.006;2024-02-23T12:18:53;11.70;99.90
31263;DHT22;17892;52.080;9.006;2024-02-23T12:21:20;11.70;99.90
31263;DHT22;17892;52.080;9.006;2024-02-23T12:23:48;11.90;99.90
31263;DHT22;17892;52.080;9.006;2024-02-23T12:26:17;11.80;99.90
31263;DHT22;17892;52.080;9.006;2024-02-23T12:28:43;11.80;99.90
31263;DHT22;17892;52.080;9.006;2024-02-23T12:31:10;11.80;99.90
31263;DHT22;17892;52.080;9.006;2024-02-23T12:33:37;11.80;99.90
31263;DHT22;17892;52.080;9.006;2024-02-23T12:36:04;11.80;99.90
31263;DHT22;17892;52.080;9.006;2024-02-23T12:38:30;11.90;99.90
31263;DHT22;17892;52.080;9.006;2024-02-23T12:40:56;11.90;99.90
31263;DHT22;17892;52.080;9.006;2024-02-23T12:43:22;11.90;99.90
31263;DHT22;17892;52.080;9.006;2024-02-23T12:45:52;11.80;99.90
31263;DHT22;17892;52.080;9.006;2024-02-23T12:48:19;11.80;99.90
31263;DHT22;17892;52.080;9.006;2024-02-23T12:50:46;11.80;99.90
31263;DHT22;17892;52.080;9.006;2024-02-23T12:56:04;11.70;99.90
31263;DHT22;17892;52.080;9.006;2024-02-23T12:58:31;11.70;99.90
31263;DHT22;17892;52.080;9.006;2024-02-23T13:00:57;11.70;99.90
31263;DHT22;17892;52.080;9.006;2024-02-23T13:03:26;11.70;99.90
31263;DHT22;17892;52.080;9.006;2024-02-23T13:05:56;11.70;99.90
31263;DHT22;17892;52.080;9.006;2024-02-23T13:08:23;11.70;99.90
31263;DHT22;17892;52.080;9.006;2024-02-23T13:10:50;11.80;99.90
31263;DHT22;17892;52.080;9.006;2024-02-23T13:13:16;11.80;99.90
31263;DHT22;17892;52.080;9.006;2024-02-23T13:15:43;11.80;99.90
31263;DHT22;17892;52.080;9.006;2024-02-23T13:18:09;11.80;99.90
31263;DHT22;17892;52.080;9.006;2024-02-23T13:20:36;11.80;99.90
31263;DHT22;17892;52.080;9.006;2024-02-23T13:23:02;11.80;99.90
31263;DHT22;17892;52.080;9.006;2024-02-23T13:25:28;11.80;99.90
31263;DHT22;17892;52.080;9.006;2024-02-23T13:27:54;11.80;99.90
31263;DHT22;17892;52.080;9.006;2024-02-23T13:30:19;11.80;99.90
31263;DHT22;17892;52.080;9.006;2024-02-23T13:32:45;11.80;99.90
31263;DHT22;17892;52.080;9.006;2024-02-23T13:35:12;11.70;99.90
31263;DHT22;17892;52.080;9.006;2024-02-23T13:37:40;11.70;99.90
31263;DHT22;17892;52.080;9.006;2024-02-23T13:40:08;11.60;99.90
31263;DHT22;17892;52.080;9.006;2024-02-23T13:42:35;11.70;99.90
31263;DHT22;17892;52.080;9.006;2024-02-23T13:45:01;11.70;99.90
31263;DHT22;17892;52.080;9.006;2024-02-23T13:47:26;11.80;99.90
31263;DHT22;17892;52.080;9.006;2024-02-23T13:49:52;11.90;99.90
31263;DHT22;17892;52.080;9.006;2024-02-23T13:52:18;11.90;99.90
31263;DHT22;17892;52.080;9.006;2024-02-23T13:54:43;11.90;99.90
31263;DHT22;17892;52.080;9.006;2024-02-23T13:57:09;11.90;99.90
31263;DHT22;17892;52.080;9.006;2024-02-23T13:59:34;11.90;99.90
31263;DHT22;17892;52.080;9.006;2024-02-23T14:02:00;11.80;99.90
31263;DHT22;17892;52.080;9.006;2024-02-23T14:04:26;11.80;99.90
31263;DHT22;17892;52.080;9.006;2024-02-23T14:06:52;11.80;99.90
31263;DHT22;17892;52.080;9.006;2024-02-23T14:09:17;11.70;99.90
31263;DHT22;17892;52.080;9.006;2024-02-23T14:11:43;11.70;99.90
31263;DHT22;17892;52.080;9.006;2024-02-23T14:14:10;11.70;99.90
31263;DHT22;17892;52.080;9.006;2024-02-23T14:16:36;11.60;99.90
31263;DHT22;17892;52.080;9.006;2024-02-23T14:19:01;11.60;99.90
31263;DHT22;17892;52.080;9.006;2024-02-23T14:21:27;11.50;99.90
31263;DHT22;17892;52.080;9.006;2024-02-23T14:23:53;11.50;99.90
31263;DHT22;17892;52.080;9.006;2024-02-23T14:26:18;11.40;99.90
31263;DHT22;17892;52.080;9.006;2024-02-23T14:28:44;11.40;99.90
31263;DHT22;17892;52.080;9.006;2024-02-23T14:31:10;11.40;99.90
31263;DHT22;17892;52.080;9.006;2024-02-23T14:33:35;11.30;99.90
31263;DHT22;17892;52.080;9.006;2024-02-23T14:36:01;11.30;99.90
31263;DHT22;17892;52.080;9.006;2024-02-23T14:38:27;11.20;99.90
31263;DHT22;17892;52.080;9.006;2024-02-23T14:40:52;11.20;99.90
31263;DHT22;17892;52.080;9.006;2024-02-23T14:43:18;11.20;99.90
31263;DHT22;17892;52.080;9.006;2024-02-23T14:45:44;11.10;99.90
31263;DHT22;17892;52.080;9.006;2024-02-23T14:48:09;11.10;99.90
31263;DHT22;17892;52.080;9.006;2024-02-23T14:50:35;11.10;99.90
31263;DHT22;17892;52.080;9.006;2024-02-23T14:53:01;11.00;99.90
31263;DHT22;17892;52.080;9.006;2024-02-23T14:55:26;11.00;99.90
31263;DHT22;17892;52.080;9.006;2024-02-23T14:57:52;11.00;99.90
31263;DHT22;17892;52.080;9.006;2024-02-23T15:00:18;11.00;99.90
31263;DHT22;17892;52.080;9.006;2024-02-23T15:02:44;10.90;99.90
31263;DHT22;17892;52.080;9.006;2024-02-23T15:05:10;10.90;99.90
31263;DHT22;17892;52.080;9.006;2024-02-23T15:07:36;10.90;99.90
31263;DHT22;17892;52.080;9.006;2024-02-23T15:10:03;10.90;99.90
31263;DHT22;17892;52.080;9.006;2024-02-23T15:12:34;10.80;99.90
31263;DHT22;17892;52.080;9.006;2024-02-23T15:15:01;10.80;99.90
31263;DHT22;17892;52.080;9.006;2024-02-23T15:17:26;10.80;99.90
31263;DHT22;17892;52.080;9.006;2024-02-23T15:19:52;10.80;99.90
31263;DHT22;17892;52.080;9.006;2024-02-23T15:22:18;10.80;99.90
31263;DHT22;17892;52.080;9.006;2024-02-23T15:24:44;10.80;99.90
31263;DHT22;17892;52.080;9.006;2024-02-23T15:27:15;10.80;99.90
31263;DHT22;17892;52.080;9.006;2024-02-23T15:29:42;10.70;99.90
31263;DHT22;17892;52.080;9.006;2024-02-23T15:32:08;10.70;99.90
31263;DHT22;17892;52.080;9.006;2024-02-23T15:34:34;10.70;99.90
31263;DHT22;17892;52.080;9.006;2024-02-23T15:37:00;10.70;99.90
31263;DHT22;17892;52.080;9.006;2024-02-23T15:39:26;10.70;99.90
31263;DHT22;17892;52.080;9.006;2024-02-23T15:41:52;10.80;99.90